.
WxDataArchive / Data Records for 2009-09-25
2009-09-24 September 2009 2009-09-26

Data Records for Friday, 25 September 2009

Time	Temp	Chill	HIndex	Humid	Dewpt	 Wind 	HiWind	WindDir	Rain 	Barom 
-----	----	-----	------	-----	-----	------	------	-------	-----	----- 
00:00	64.5	64.5	64.5	72	55.3	1	4	90	0.00	30.182 
00:05	64.5	64.5	64.5	72	55.3	0	3	90	0.00	30.182 
00:10	64.5	64.5	64.5	72	55.3	0	2	90	0.00	30.182 
00:15	64.3	64.3	64.3	72	55.1	0	3	90	0.00	30.187 
00:20	64.3	64.3	64.3	72	55.1	0	1	90	0.00	30.187 
00:25	64.2	64.2	64.2	73	55.4	0	1	90	0.00	30.187 
00:30	64.0	64.0	64.0	73	55.2	0	1	90	0.00	30.195 
00:35	63.9	63.9	63.9	73	55.1	0	1	90	0.00	30.195 
00:40	63.7	63.7	63.7	74	55.3	0	1	90	0.00	30.195 
00:45	63.5	63.5	63.5	74	55.1	0	0	---	0.00	30.193 
00:50	63.4	63.4	63.4	74	55.0	0	1	90	0.00	30.193 
00:55	63.2	63.2	63.2	74	54.8	0	1	90	0.00	30.193 
01:00	63.2	63.2	63.2	75	55.1	0	1	90	0.00	30.191 
01:05	63.1	63.1	63.1	75	55.0	0	1	90	0.00	30.191 
01:10	62.9	62.9	62.9	74	54.5	0	1	90	0.00	30.191 
01:15	62.9	62.9	62.9	74	54.5	0	1	90	0.00	30.189 
01:20	62.9	62.9	62.9	74	54.5	0	2	90	0.00	30.189 
01:25	63.1	63.1	63.1	74	54.7	0	3	90	0.00	30.189 
01:30	63.1	63.1	63.1	75	55.0	0	3	90	0.00	30.172 
01:35	62.9	62.9	62.9	74	54.5	1	3	90	0.00	30.172 
01:40	62.9	62.9	62.9	74	54.5	1	4	112	0.00	30.172 
01:45	62.9	62.9	62.9	73	54.1	1	3	112	0.00	30.171 
01:50	63.1	63.1	63.1	73	54.3	1	4	112	0.00	30.171 
01:55	63.1	63.1	63.1	73	54.3	0	3	90	0.00	30.171 
02:00	63.1	63.1	63.1	74	54.7	1	4	112	0.00	30.164 
02:05	63.1	63.1	63.1	73	54.3	0	2	112	0.00	30.164 
02:10	63.1	63.1	63.1	73	54.3	1	2	112	0.00	30.164 
02:15	62.9	62.9	62.9	73	54.1	1	3	112	0.00	30.166 
02:20	62.9	62.9	62.9	73	54.1	1	3	90	0.00	30.166 
02:25	62.9	62.9	62.9	72	53.7	1	3	90	0.00	30.166 
02:30	62.9	62.9	62.9	72	53.7	1	3	90	0.00	30.176 
02:35	62.9	62.9	62.9	73	54.1	0	2	90	0.00	30.176 
02:40	62.9	62.9	62.9	73	54.1	1	3	112	0.00	30.176 
02:45	62.7	62.7	62.7	74	54.3	1	3	112	0.00	30.170 
02:50	62.6	62.6	62.6	73	53.8	1	5	112	0.00	30.170 
02:55	62.6	62.6	62.6	74	54.2	1	4	90	0.00	30.170 
03:00	62.4	62.4	62.4	74	54.0	0	3	90	0.00	30.178 
03:05	62.4	62.4	62.4	74	54.0	0	2	112	0.00	30.178 
03:10	62.3	62.3	62.3	75	54.3	0	2	112	0.00	30.178 
03:15	62.1	62.1	62.1	75	54.1	1	3	112	0.00	30.180 
03:20	62.0	62.0	62.0	76	54.3	0	3	112	0.00	30.180 
03:25	61.8	61.8	61.8	76	54.1	0	3	112	0.00	30.180 
03:30	61.8	61.8	61.8	76	54.1	0	2	112	0.00	30.178 
03:35	61.5	61.5	61.5	77	54.2	0	2	112	0.00	30.178 
03:40	61.3	61.3	61.3	77	54.0	1	6	112	0.00	30.178 
03:45	61.3	61.3	61.3	78	54.4	1	2	90	0.00	30.169 
03:50	61.2	61.2	61.2	78	54.3	1	3	90	0.00	30.169 
03:55	60.9	60.9	60.9	79	54.3	1	3	90	0.00	30.169 
04:00	60.9	60.9	60.9	80	54.7	1	4	90	0.00	30.166 
04:05	60.5	60.5	60.5	80	54.3	1	3	90	0.00	30.166 
04:10	60.4	60.4	60.4	80	54.2	1	2	135	0.00	30.166 
04:15	60.2	60.2	60.2	81	54.3	1	2	135	0.00	30.155 
04:20	60.1	60.1	60.1	81	54.2	1	5	135	0.00	30.155 
04:25	60.1	60.1	60.1	82	54.6	0	1	90	0.00	30.155 
04:30	59.9	59.9	59.9	83	54.7	1	3	112	0.00	30.149 
04:35	59.8	59.8	59.8	83	54.6	1	4	112	0.00	30.149 
04:40	59.8	59.8	59.8	83	54.6	1	4	68	0.00	30.149 
04:45	59.6	59.6	59.6	83	54.4	1	3	68	0.00	30.153 
04:50	59.5	59.5	59.5	84	54.7	1	2	68	0.00	30.153 
04:55	59.5	59.5	59.5	84	54.7	1	4	90	0.00	30.153 
05:00	59.3	59.3	59.3	85	54.8	1	4	90	0.00	30.147 
05:05	59.2	59.2	59.2	85	54.7	0	2	90	0.00	30.147 
05:10	59.2	59.2	59.2	85	54.7	0	2	90	0.00	30.147 
05:15	59.0	59.0	59.0	86	54.8	1	3	90	0.00	30.152 
05:20	59.0	59.0	59.0	86	54.8	1	4	112	0.00	30.152 
05:25	58.9	58.9	58.9	86	54.7	1	4	112	0.00	30.152 
05:30	58.9	58.9	58.9	86	54.7	0	2	112	0.00	30.149 
05:35	58.7	58.7	58.7	87	54.8	1	4	112	0.00	30.149 
05:40	58.6	58.6	58.6	87	54.7	0	2	112	0.00	30.149 
05:45	58.4	58.4	58.4	87	54.5	0	1	90	0.00	30.162 
05:50	58.4	58.4	58.4	87	54.5	0	1	90	0.00	30.162 
05:55	58.3	58.3	58.3	88	54.8	0	3	112	0.00	30.162 
06:00	58.1	58.1	58.1	88	54.6	0	2	112	0.00	30.160 
06:05	58.1	58.1	58.1	88	54.6	1	3	112	0.00	30.160 
06:10	58.0	58.0	58.0	88	54.5	0	1	112	0.00	30.160 
06:15	57.8	57.8	57.8	88	54.3	0	2	112	0.00	30.168 
06:20	57.8	57.8	57.8	88	54.3	0	2	112	0.00	30.168 
06:25	57.6	57.6	57.6	88	54.1	0	3	112	0.00	30.168 
06:30	57.6	57.6	57.6	88	54.1	0	4	112	0.00	30.175 
06:35	57.6	57.6	57.6	88	54.1	0	2	112	0.00	30.175 
06:40	57.5	57.5	57.5	88	54.0	1	3	112	0.00	30.175 
06:45	57.5	57.5	57.5	88	54.0	1	3	112	0.00	30.172 
06:50	57.5	57.5	57.5	88	54.0	0	2	112	0.00	30.172 
06:55	57.3	57.3	57.3	87	53.5	1	3	112	0.00	30.172 
07:00	57.3	57.3	57.3	87	53.5	0	2	112	0.00	30.185 
07:05	57.3	57.3	57.3	87	53.5	0	1	112	0.00	30.185 
07:10	57.2	57.2	57.2	87	53.4	0	1	112	0.00	30.185 
07:15	57.0	57.0	57.0	87	53.2	0	2	112	0.00	30.198 
07:20	57.0	57.0	57.0	87	53.2	0	1	112	0.00	30.198 
07:25	56.9	56.9	56.9	87	53.1	0	1	112	0.00	30.198 
07:30	56.7	56.7	56.7	87	52.9	0	1	112	0.00	30.196 
07:35	56.6	56.6	56.6	87	52.8	0	2	112	0.00	30.196 
07:40	56.5	56.5	56.5	87	52.7	0	1	112	0.00	30.196 
07:45	56.5	56.5	56.5	88	53.0	0	1	112	0.00	30.204 
07:50	56.5	56.5	56.5	88	53.0	0	1	112	0.00	30.204 
07:55	56.3	56.3	56.3	88	52.8	0	1	112	0.00	30.204 
08:00	56.3	56.3	56.3	88	52.8	0	1	112	0.00	30.203 
08:05	56.3	56.3	56.3	88	52.8	0	1	112	0.00	30.203 
08:10	56.5	56.5	56.5	88	53.0	0	3	112	0.00	30.203 
08:15	56.5	56.5	56.5	88	53.0	0	2	112	0.00	30.201 
08:20	56.6	56.6	56.6	88	53.1	1	4	112	0.00	30.201 
08:25	56.7	56.7	56.7	87	52.9	1	5	112	0.00	30.201 
08:30	56.7	56.7	56.7	87	52.9	1	5	90	0.00	30.197 
08:35	56.7	56.7	56.7	87	52.9	1	5	90	0.00	30.197 
08:40	56.9	56.9	56.9	87	53.1	2	6	90	0.00	30.197 
08:45	56.9	56.9	56.9	87	53.1	2	4	90	0.00	30.192 
08:50	56.9	56.9	56.9	88	53.4	2	5	90	0.00	30.192 
08:55	56.9	56.9	56.9	88	53.4	1	5	90	0.00	30.192 
09:00	57.0	57.0	57.0	88	53.5	2	7	90	0.00	30.186 
09:05	57.2	57.2	57.2	88	53.7	1	7	90	0.00	30.186 
09:10	57.3	57.3	57.3	88	53.8	1	4	90	0.00	30.186 
09:15	57.3	57.3	57.3	88	53.8	1	5	112	0.00	30.196 
09:20	57.5	57.5	57.5	88	54.0	0	2	112	0.00	30.196 
09:25	57.6	57.6	57.6	88	54.1	1	4	112	0.00	30.196 
09:30	57.8	57.8	57.8	88	54.3	1	4	90	0.00	30.199 
09:35	58.0	58.0	58.0	88	54.5	1	4	112	0.00	30.199 
09:40	58.1	58.1	58.1	88	54.6	1	4	90	0.00	30.199 
09:45	58.4	58.4	58.4	88	54.9	1	4	112	0.00	30.196 
09:50	58.6	58.6	58.6	87	54.7	1	4	112	0.00	30.196 
09:55	58.7	58.7	58.7	87	54.8	1	2	90	0.00	30.196 
10:00	59.0	59.0	59.0	87	55.1	1	2	90	0.00	30.195 
10:05	59.2	59.2	59.2	87	55.3	1	5	90	0.00	30.195 
10:10	59.3	59.3	59.3	86	55.1	1	5	112	0.00	30.195 
10:15	59.5	59.5	59.5	87	55.6	1	3	90	0.00	30.203 
10:20	59.6	59.6	59.6	87	55.7	1	4	90	0.00	30.203 
10:25	59.6	59.6	59.6	87	55.7	2	5	90	0.00	30.203 
10:30	59.8	59.8	59.8	87	55.9	1	5	112	0.00	30.183 
10:35	59.9	59.9	59.9	87	56.0	2	6	112	0.00	30.183 
10:40	60.1	60.1	60.1	87	56.2	1	7	90	0.00	30.183 
10:45	60.4	60.4	60.4	87	56.5	2	6	90	0.00	30.177 
10:50	60.5	60.5	60.5	87	56.6	2	6	68	0.00	30.177 
10:55	60.7	60.7	60.7	87	56.8	2	7	90	0.00	30.177 
11:00	61.0	61.0	61.0	87	57.1	1	3	90	0.00	30.183 
11:05	61.2	61.2	61.2	87	57.3	1	6	90	0.00	30.183 
11:10	61.3	61.3	61.3	87	57.4	2	6	90	0.00	30.183 
11:15	61.6	61.6	61.6	87	57.7	1	3	90	0.00	30.190 
11:20	61.8	61.8	61.8	87	57.9	0	2	90	0.00	30.190 
11:25	62.3	62.3	62.3	86	58.1	2	5	90	0.00	30.190 
11:30	62.6	62.6	62.6	86	58.3	3	5	112	0.00	30.184 
11:35	62.7	62.7	62.7	85	58.1	1	5	112	0.00	30.184 
11:40	62.9	62.9	62.9	85	58.3	2	6	90	0.00	30.184 
11:45	63.1	63.1	63.1	85	58.5	3	10	90	0.00	30.182 
11:50	63.2	63.2	63.2	85	58.6	1	5	90	0.00	30.182 
11:55	63.4	63.4	63.4	85	58.8	2	5	112	0.00	30.182 
12:00	63.7	63.7	63.7	85	59.1	1	5	112	0.00	30.184 
12:05	63.9	63.9	63.9	85	59.3	1	4	112	0.00	30.184 
12:10	64.2	64.2	64.2	83	58.9	3	6	112	0.00	30.184 
12:15	64.7	64.7	64.7	81	58.7	4	10	90	0.00	30.181 
12:20	65.3	65.3	65.3	80	59.0	3	7	90	0.00	30.181 
12:25	66.1	66.1	66.1	77	58.7	3	11	90	0.00	30.181 
12:30	66.9	66.9	66.9	75	58.7	3	10	90	0.00	30.182 
12:35	67.6	67.6	67.6	74	59.0	2	7	90	0.00	30.182 
12:40	68.1	68.1	68.1	70	57.9	3	11	112	0.00	30.182 
12:45	68.4	68.4	68.4	68	57.4	4	8	90	0.00	30.172 
12:50	68.4	68.4	68.4	67	57.0	4	11	90	0.00	30.172 
12:55	68.4	68.4	68.4	68	57.4	4	10	90	0.00	30.172 
13:00	68.8	68.8	68.8	65	56.5	4	10	90	0.00	30.170 
13:05	69.4	69.4	69.4	64	56.7	3	7	90	0.00	30.170 
13:10	69.6	69.6	69.6	64	56.9	3	7	90	0.00	30.170 
13:15	69.4	69.4	69.4	62	55.8	5	12	112	0.00	30.171 
13:20	69.8	69.8	69.8	62	56.2	5	10	90	0.00	30.171 
13:25	70.1	70.1	70.1	62	56.5	4	10	90	0.00	30.171 
13:30	70.3	70.3	70.3	61	56.2	3	7	112	0.00	30.166 
13:35	70.6	70.6	70.6	59	55.6	4	10	90	0.00	30.166 
13:40	70.4	70.4	70.4	60	55.8	3	9	112	0.00	30.166 
13:45	70.3	70.3	70.3	58	54.8	4	10	112	0.00	30.162 
13:50	70.3	70.3	70.3	59	55.3	3	6	90	0.00	30.162 
13:55	70.3	70.3	70.3	58	54.8	5	13	90	0.00	30.162 
14:00	70.4	70.4	70.4	58	54.9	5	12	90	0.00	30.150 
14:05	70.8	70.8	70.8	58	55.3	3	9	90	0.00	30.150 
14:10	71.3	71.3	71.3	58	55.7	3	9	90	0.00	30.150 
14:15	71.6	71.6	71.6	58	56.0	3	10	90	0.00	30.144 
14:20	71.6	71.6	71.6	56	55.1	4	10	90	0.00	30.144 
14:25	71.3	71.3	71.3	54	53.8	5	11	90	0.00	30.144 
14:30	71.1	71.1	71.1	54	53.6	5	13	90	0.00	30.139 
14:35	70.9	70.9	70.9	54	53.4	3	6	90	0.00	30.139 
14:40	70.9	70.9	70.9	54	53.4	3	9	90	0.00	30.139 
14:45	70.9	70.9	70.9	54	53.4	4	10	90	0.00	30.138 
14:50	70.6	70.6	70.6	54	53.1	4	10	90	0.00	30.138 
14:55	70.6	70.6	70.6	54	53.1	4	10	90	0.00	30.138 
15:00	70.4	70.4	70.4	55	53.4	4	7	90	0.00	30.137 
15:05	70.4	70.4	70.4	54	52.9	5	11	90	0.00	30.137 
15:10	70.4	70.4	70.4	54	52.9	4	15	112	0.00	30.137 
15:15	70.4	70.4	70.4	54	52.9	4	15	112	0.00	30.136 
15:20	70.4	70.4	70.4	55	53.4	3	7	90	0.00	30.136 
15:25	70.4	70.4	70.4	55	53.4	4	10	90	0.00	30.136 
15:30	70.4	70.4	70.4	55	53.4	3	7	90	0.00	30.132 
15:35	70.4	70.4	70.4	54	52.9	4	9	90	0.00	30.132 
15:40	70.6	70.6	70.6	54	53.1	3	8	90	0.00	30.132 
15:45	70.6	70.6	70.6	55	53.6	2	5	90	0.00	30.128 
15:50	70.6	70.6	70.6	55	53.6	2	6	112	0.00	30.128 
15:55	70.4	70.4	70.4	56	53.9	2	6	112	0.00	30.128 
16:00	70.4	70.4	70.4	54	52.9	3	7	90	0.00	30.128 
16:05	70.6	70.6	70.6	56	54.1	3	7	112	0.00	30.128 
16:10	70.9	70.9	70.9	54	53.4	2	5	90	0.00	30.128 
16:15	71.1	71.1	71.1	54	53.6	2	15	68	0.00	30.129 
16:20	70.8	70.8	70.8	55	53.8	2	6	112	0.00	30.129 
16:25	70.4	70.4	70.4	56	53.9	2	6	90	0.00	30.129 
16:30	70.1	70.1	70.1	57	54.1	2	4	112	0.00	30.123 
16:35	69.9	69.9	69.9	57	54.0	2	5	90	0.00	30.123 
16:40	69.9	69.9	69.9	58	54.4	1	4	112	0.00	30.123 
16:45	69.9	69.9	69.9	59	54.9	2	5	68	0.00	30.123 
16:50	69.9	69.9	69.9	58	54.4	3	5	90	0.00	30.123 
16:55	69.6	69.6	69.6	58	54.2	3	9	112	0.00	30.123 
17:00	69.4	69.4	69.4	58	54.0	2	9	112	0.00	30.123 
17:05	69.4	69.4	69.4	60	54.9	1	4	112	0.00	30.123 
17:10	69.4	69.4	69.4	60	54.9	2	6	112	0.00	30.123 
17:15	69.4	69.4	69.4	61	55.4	1	3	68	0.00	30.125 
17:20	69.6	69.6	69.6	60	55.1	1	4	68	0.00	30.125 
17:25	69.4	69.4	69.4	60	54.9	1	5	90	0.00	30.125 
17:30	69.4	69.4	69.4	59	54.4	2	5	112	0.00	30.126 
17:35	69.3	69.3	69.3	59	54.3	2	6	90	0.00	30.126 
17:40	69.3	69.3	69.3	60	54.8	1	4	90	0.00	30.126 
17:45	69.1	69.1	69.1	61	55.1	1	3	90	0.00	30.124 
17:50	68.8	68.8	68.8	65	56.5	1	3	90	0.00	30.124 
17:55	68.4	68.4	68.4	68	57.4	0	2	90	0.00	30.124 
18:00	67.9	67.9	67.9	70	57.7	0	1	90	0.00	30.117 
18:05	67.4	67.4	67.4	69	56.9	0	2	90	0.00	30.117 
18:10	67.1	67.1	67.1	69	56.6	0	3	90	0.00	30.117 
18:15	67.1	67.1	67.1	68	56.2	1	2	90	0.00	30.120 
18:20	67.1	67.1	67.1	67	55.8	0	2	90	0.00	30.120 
18:25	67.3	67.3	67.3	66	55.5	0	1	90	0.00	30.120 
18:30	67.4	67.4	67.4	65	55.2	0	1	90	0.00	30.120 
18:35	67.4	67.4	67.4	66	55.6	0	0	---	0.00	30.120 
18:40	67.4	67.4	67.4	68	56.5	0	0	---	0.00	30.120 
18:45	67.3	67.3	67.3	68	56.4	0	0	---	0.00	30.124 
18:50	67.3	67.3	67.3	69	56.8	0	0	---	0.00	30.124 
18:55	67.1	67.1	67.1	67	55.8	0	1	90	0.00	30.124 
19:00	66.9	66.9	66.9	67	55.6	0	1	90	0.00	30.125 
19:05	66.9	66.9	66.9	68	56.0	0	0	---	0.00	30.125 
19:10	66.9	66.9	66.9	69	56.4	0	0	---	0.00	30.125 
19:15	66.8	66.8	66.8	68	55.9	0	1	90	0.00	30.124 
19:20	66.4	66.4	66.4	64	53.8	1	3	90	0.00	30.124 
19:25	66.6	66.6	66.6	62	53.2	2	10	90	0.00	30.124 
19:30	66.9	66.9	66.9	56	50.7	4	11	90	0.00	30.120 
19:35	67.3	67.3	67.3	55	50.6	3	9	90	0.00	30.120 
19:40	67.3	67.3	67.3	54	50.1	3	6	90	0.00	30.120 
19:45	67.3	67.3	67.3	55	50.6	2	5	112	0.00	30.115 
19:50	66.9	66.9	66.9	54	49.7	2	5	112	0.00	30.115 
19:55	66.9	66.9	66.9	53	49.2	2	4	90	0.00	30.115 
20:00	66.9	66.9	66.9	54	49.7	1	5	68	0.00	30.117 
20:05	66.9	66.9	66.9	54	49.7	0	1	112	0.00	30.117 
20:10	66.9	66.9	66.9	54	49.7	2	4	68	0.00	30.117 
20:15	66.9	66.9	66.9	55	50.2	1	6	112	0.00	30.112 
20:20	66.9	66.9	66.9	55	50.2	2	5	112	0.00	30.112 
20:25	66.8	66.8	66.8	56	50.6	1	3	112	0.00	30.112 
20:30	66.8	66.8	66.8	57	51.1	0	2	112	0.00	30.126 
20:35	66.4	66.4	66.4	57	50.7	0	3	112	0.00	30.126 
20:40	66.3	66.3	66.3	58	51.1	0	1	112	0.00	30.126 
20:45	66.1	66.1	66.1	58	50.9	1	2	112	0.00	30.119 
20:50	66.1	66.1	66.1	58	50.9	1	3	90	0.00	30.119 
20:55	66.1	66.1	66.1	60	51.8	0	1	90	0.00	30.119 
21:00	66.0	66.0	66.0	62	52.6	0	2	90	0.00	30.127 
21:05	65.8	65.8	65.8	63	52.8	1	3	90	0.00	30.127 
21:10	65.8	65.8	65.8	64	53.3	1	3	90	0.00	30.127 
21:15	65.6	65.6	65.6	62	52.2	0	2	90	0.00	30.131 
21:20	65.5	65.5	65.5	60	51.2	0	4	90	0.00	30.131 
21:25	65.3	65.3	65.3	61	51.5	0	1	90	0.00	30.131 
21:30	65.2	65.2	65.2	62	51.8	0	3	90	0.00	30.133 
21:35	64.8	64.8	64.8	65	52.8	0	2	90	0.00	30.133 
21:40	64.5	64.5	64.5	66	52.9	0	2	90	0.00	30.133 
21:45	64.3	64.3	64.3	67	53.1	0	3	90	0.00	30.132 
21:50	64.0	64.0	64.0	68	53.2	1	3	112	0.00	30.132 
21:55	64.0	64.0	64.0	69	53.6	0	1	112	0.00	30.132 
22:00	63.9	63.9	63.9	70	53.9	0	1	112	0.00	30.132 
22:05	63.7	63.7	63.7	72	54.5	0	2	112	0.00	30.132 
22:10	63.4	63.4	63.4	73	54.6	1	2	112	0.00	30.132 
22:15	63.2	63.2	63.2	73	54.4	1	2	112	0.00	30.129 
22:20	63.2	63.2	63.2	74	54.8	0	3	112	0.00	30.129 
22:25	63.2	63.2	63.2	75	55.1	0	2	90	0.00	30.129 
22:30	63.1	63.1	63.1	76	55.4	1	3	90	0.00	30.126 
22:35	62.9	62.9	62.9	77	55.6	1	3	90	0.00	30.126 
22:40	62.9	62.9	62.9	77	55.6	0	2	90	0.00	30.126 
22:45	62.7	62.7	62.7	77	55.4	1	6	68	0.00	30.126 
22:50	62.7	62.7	62.7	77	55.4	1	4	68	0.00	30.126 
22:55	62.7	62.7	62.7	78	55.7	1	2	90	0.00	30.126 
23:00	62.7	62.7	62.7	78	55.7	0	2	90	0.00	30.124 
23:05	62.7	62.7	62.7	77	55.4	1	4	90	0.00	30.124 
23:10	62.7	62.7	62.7	76	55.0	1	4	90	0.00	30.124 
23:15	62.9	62.9	62.9	76	55.2	1	4	90	0.00	30.120 
23:20	62.9	62.9	62.9	75	54.8	2	6	90	0.00	30.120 
23:25	62.9	62.9	62.9	75	54.8	2	4	90	0.00	30.120 
23:30	62.9	62.9	62.9	74	54.5	2	4	90	0.00	30.111 
23:35	62.9	62.9	62.9	73	54.1	2	5	90	0.00	30.111 
23:40	63.1	63.1	63.1	73	54.3	2	5	90	0.00	30.111 
23:45	62.9	62.9	62.9	73	54.1	2	4	90	0.00	30.107 
23:50	62.9	62.9	62.9	73	54.1	1	3	90	0.00	30.107 
23:55	62.9	62.9	62.9	73	54.1	1	5	90	0.00	30.107 

CoCoRaHS
IN-AL-39
A2 Web Hosting
Creative Commons License
GoDaddy
search engine by freefind advanced

loaded 2018-11-17 14:36:48 • last modified 2010-11-18 10:43:29
Privacy PolicyDisclaimer
• wx.awcolley.com is powered by PmWiki v.2002016 •
• all content (unless otherwise noted) © 2018 A W Colley